sensor_id;sensor_type;location;lat;lon;timestamp;P1;durP1;ratioP1;P2;durP2;ratioP2
422;SDS011;198;48.752;9.180;2023-05-16T00:00:57;16.20;;;7.60;;
422;SDS011;198;48.752;9.180;2023-05-16T00:03:23;18.73;;;10.23;;
422;SDS011;198;48.752;9.180;2023-05-16T00:05:48;14.60;;;7.97;;
422;SDS011;198;48.752;9.180;2023-05-16T00:08:14;17.30;;;7.70;;
422;SDS011;198;48.752;9.180;2023-05-16T00:10:40;13.97;;;7.50;;
422;SDS011;198;48.752;9.180;2023-05-16T00:13:06;16.30;;;8.07;;
422;SDS011;198;48.752;9.180;2023-05-16T00:15:31;14.57;;;8.83;;
422;SDS011;198;48.752;9.180;2023-05-16T00:17:57;19.43;;;9.03;;
422;SDS011;198;48.752;9.180;2023-05-16T00:20:24;19.03;;;8.10;;
422;SDS011;198;48.752;9.180;2023-05-16T00:22:51;17.63;;;8.37;;
422;SDS011;198;48.752;9.180;2023-05-16T00:25:17;15.63;;;8.07;;
422;SDS011;198;48.752;9.180;2023-05-16T00:27:42;16.47;;;7.80;;
422;SDS011;198;48.752;9.180;2023-05-16T00:30:08;22.93;;;7.83;;
422;SDS011;198;48.752;9.180;2023-05-16T00:32:34;33.27;;;10.23;;
422;SDS011;198;48.752;9.180;2023-05-16T00:35:00;18.57;;;10.10;;
422;SDS011;198;48.752;9.180;2023-05-16T00:37:26;20.00;;;10.07;;
422;SDS011;198;48.752;9.180;2023-05-16T00:39:51;21.57;;;11.07;;
422;SDS011;198;48.752;9.180;2023-05-16T00:42:20;21.63;;;9.73;;
422;SDS011;198;48.752;9.180;2023-05-16T00:44:46;21.13;;;10.07;;
422;SDS011;198;48.752;9.180;2023-05-16T00:47:12;23.57;;;10.60;;
422;SDS011;198;48.752;9.180;2023-05-16T00:49:38;20.17;;;10.70;;
422;SDS011;198;48.752;9.180;2023-05-16T00:52:04;24.13;;;12.40;;
422;SDS011;198;48.752;9.180;2023-05-16T00:54:30;24.33;;;12.77;;
422;SDS011;198;48.752;9.180;2023-05-16T00:56:55;22.40;;;10.53;;
422;SDS011;198;48.752;9.180;2023-05-16T00:59:22;25.90;;;11.17;;
422;SDS011;198;48.752;9.180;2023-05-16T01:01:48;29.10;;;12.00;;
422;SDS011;198;48.752;9.180;2023-05-16T01:04:15;25.27;;;13.17;;
422;SDS011;198;48.752;9.180;2023-05-16T01:06:41;23.30;;;10.33;;
422;SDS011;198;48.752;9.180;2023-05-16T01:09:08;25.53;;;12.00;;
422;SDS011;198;48.752;9.180;2023-05-16T01:11:35;26.87;;;12.43;;
422;SDS011;198;48.752;9.180;2023-05-16T01:17:08;31.20;;;13.03;;
422;SDS011;198;48.752;9.180;2023-05-16T01:20:00;30.63;;;12.53;;
422;SDS011;198;48.752;9.180;2023-05-16T01:28:09;29.90;;;12.87;;
422;SDS011;198;48.752;9.180;2023-05-16T01:30:38;32.30;;;16.00;;
422;SDS011;198;48.752;9.180;2023-05-16T01:33:05;28.00;;;14.30;;
422;SDS011;198;48.752;9.180;2023-05-16T01:35:31;33.23;;;15.50;;
422;SDS011;198;48.752;9.180;2023-05-16T01:40:35;45.30;;;17.67;;
422;SDS011;198;48.752;9.180;2023-05-16T01:43:10;35.17;;;15.47;;
422;SDS011;198;48.752;9.180;2023-05-16T01:45:41;43.00;;;18.77;;
422;SDS011;198;48.752;9.180;2023-05-16T01:48:15;35.67;;;14.90;;
422;SDS011;198;48.752;9.180;2023-05-16T01:50:46;51.97;;;18.07;;
422;SDS011;198;48.752;9.180;2023-05-16T01:53:18;43.43;;;19.23;;
422;SDS011;198;48.752;9.180;2023-05-16T01:55:54;45.10;;;17.43;;
422;SDS011;198;48.752;9.180;2023-05-16T01:58:22;41.00;;;16.30;;
422;SDS011;198;48.752;9.180;2023-05-16T02:00:52;40.67;;;18.27;;
422;SDS011;198;48.752;9.180;2023-05-16T02:03:18;38.90;;;17.70;;
422;SDS011;198;48.752;9.180;2023-05-16T02:05:43;52.10;;;20.00;;
422;SDS011;198;48.752;9.180;2023-05-16T02:08:09;42.13;;;16.80;;
422;SDS011;198;48.752;9.180;2023-05-16T02:10:34;46.10;;;18.13;;
422;SDS011;198;48.752;9.180;2023-05-16T02:13:00;40.63;;;15.50;;
422;SDS011;198;48.752;9.180;2023-05-16T02:15:25;47.00;;;17.90;;
422;SDS011;198;48.752;9.180;2023-05-16T02:17:51;40.27;;;18.43;;
422;SDS011;198;48.752;9.180;2023-05-16T02:20:17;41.87;;;16.87;;
422;SDS011;198;48.752;9.180;2023-05-16T02:22:42;41.93;;;17.90;;
422;SDS011;198;48.752;9.180;2023-05-16T02:25:08;49.00;;;18.80;;
422;SDS011;198;48.752;9.180;2023-05-16T02:27:34;56.37;;;20.20;;
422;SDS011;198;48.752;9.180;2023-05-16T02:30:00;52.27;;;19.07;;
422;SDS011;198;48.752;9.180;2023-05-16T02:32:26;45.10;;;18.47;;
422;SDS011;198;48.752;9.180;2023-05-16T02:34:51;45.53;;;17.80;;
422;SDS011;198;48.752;9.180;2023-05-16T02:37:17;46.90;;;16.77;;
422;SDS011;198;48.752;9.180;2023-05-16T02:39:42;45.70;;;17.87;;
422;SDS011;198;48.752;9.180;2023-05-16T02:42:08;53.43;;;18.73;;
422;SDS011;198;48.752;9.180;2023-05-16T02:44:34;45.23;;;17.27;;
422;SDS011;198;48.752;9.180;2023-05-16T02:46:59;38.83;;;17.27;;
422;SDS011;198;48.752;9.180;2023-05-16T02:49:25;45.90;;;18.80;;
422;SDS011;198;48.752;9.180;2023-05-16T02:51:50;40.50;;;17.70;;
422;SDS011;198;48.752;9.180;2023-05-16T02:54:16;45.50;;;19.80;;
422;SDS011;198;48.752;9.180;2023-05-16T02:56:41;46.93;;;19.07;;
422;SDS011;198;48.752;9.180;2023-05-16T02:59:07;42.27;;;17.70;;
422;SDS011;198;48.752;9.180;2023-05-16T03:01:32;64.77;;;20.77;;
422;SDS011;198;48.752;9.180;2023-05-16T03:03:58;50.40;;;21.67;;
422;SDS011;198;48.752;9.180;2023-05-16T03:06:24;45.00;;;17.63;;
422;SDS011;198;48.752;9.180;2023-05-16T03:08:49;49.30;;;19.70;;
422;SDS011;198;48.752;9.180;2023-05-16T03:11:16;52.17;;;20.37;;
422;SDS011;198;48.752;9.180;2023-05-16T03:13:45;52.00;;;18.73;;
422;SDS011;198;48.752;9.180;2023-05-16T03:16:11;51.37;;;18.90;;
422;SDS011;198;48.752;9.180;2023-05-16T03:18:36;60.00;;;18.50;;
422;SDS011;198;48.752;9.180;2023-05-16T03:21:02;54.00;;;20.90;;
422;SDS011;198;48.752;9.180;2023-05-16T03:23:28;51.93;;;20.40;;
422;SDS011;198;48.752;9.180;2023-05-16T03:25:53;58.27;;;21.17;;
422;SDS011;198;48.752;9.180;2023-05-16T03:28:20;60.10;;;23.73;;
422;SDS011;198;48.752;9.180;2023-05-16T03:30:45;61.97;;;21.07;;
422;SDS011;198;48.752;9.180;2023-05-16T03:33:11;49.57;;;19.43;;
422;SDS011;198;48.752;9.180;2023-05-16T03:35:36;50.40;;;20.33;;
422;SDS011;198;48.752;9.180;2023-05-16T03:38:02;62.63;;;21.13;;
422;SDS011;198;48.752;9.180;2023-05-16T03:40:28;58.50;;;22.50;;
422;SDS011;198;48.752;9.180;2023-05-16T03:42:53;58.10;;;20.27;;
422;SDS011;198;48.752;9.180;2023-05-16T03:45:19;55.03;;;21.40;;
422;SDS011;198;48.752;9.180;2023-05-16T03:47:44;58.90;;;21.97;;
422;SDS011;198;48.752;9.180;2023-05-16T03:50:10;59.60;;;22.03;;
422;SDS011;198;48.752;9.180;2023-05-16T03:52:36;61.57;;;23.40;;
422;SDS011;198;48.752;9.180;2023-05-16T03:55:01;78.27;;;22.80;;
422;SDS011;198;48.752;9.180;2023-05-16T03:57:31;68.73;;;24.17;;
422;SDS011;198;48.752;9.180;2023-05-16T03:59:58;63.70;;;22.40;;
422;SDS011;198;48.752;9.180;2023-05-16T04:02:24;78.37;;;23.00;;
422;SDS011;198;48.752;9.180;2023-05-16T04:04:49;65.07;;;22.27;;
422;SDS011;198;48.752;9.180;2023-05-16T04:07:15;60.43;;;24.40;;
422;SDS011;198;48.752;9.180;2023-05-16T04:09:40;66.00;;;23.60;;
422;SDS011;198;48.752;9.180;2023-05-16T04:12:06;67.30;;;25.90;;
422;SDS011;198;48.752;9.180;2023-05-16T04:14:33;59.93;;;22.23;;
422;SDS011;198;48.752;9.180;2023-05-16T04:17:02;63.37;;;23.70;;
422;SDS011;198;48.752;9.180;2023-05-16T04:19:27;68.27;;;24.10;;
422;SDS011;198;48.752;9.180;2023-05-16T04:21:53;61.17;;;22.77;;
422;SDS011;198;48.752;9.180;2023-05-16T04:24:18;66.93;;;24.00;;
422;SDS011;198;48.752;9.180;2023-05-16T04:26:44;60.33;;;22.93;;
422;SDS011;198;48.752;9.180;2023-05-16T04:29:09;66.80;;;22.93;;
422;SDS011;198;48.752;9.180;2023-05-16T04:31:35;56.07;;;21.43;;
422;SDS011;198;48.752;9.180;2023-05-16T04:34:01;67.27;;;23.07;;
422;SDS011;198;48.752;9.180;2023-05-16T04:36:27;67.97;;;24.07;;
422;SDS011;198;48.752;9.180;2023-05-16T04:38:54;74.17;;;23.97;;
422;SDS011;198;48.752;9.180;2023-05-16T04:41:20;66.70;;;23.30;;
422;SDS011;198;48.752;9.180;2023-05-16T04:43:46;68.83;;;24.80;;
422;SDS011;198;48.752;9.180;2023-05-16T04:46:12;62.20;;;26.03;;
422;SDS011;198;48.752;9.180;2023-05-16T04:48:39;72.27;;;23.90;;
422;SDS011;198;48.752;9.180;2023-05-16T04:51:05;57.57;;;21.13;;
422;SDS011;198;48.752;9.180;2023-05-16T04:53:30;56.83;;;21.60;;
422;SDS011;198;48.752;9.180;2023-05-16T04:55:56;65.73;;;22.93;;
422;SDS011;198;48.752;9.180;2023-05-16T04:58:22;67.60;;;23.47;;
422;SDS011;198;48.752;9.180;2023-05-16T05:00:48;64.30;;;23.60;;
422;SDS011;198;48.752;9.180;2023-05-16T05:03:15;62.00;;;22.73;;
422;SDS011;198;48.752;9.180;2023-05-16T05:05:41;59.73;;;22.87;;
422;SDS011;198;48.752;9.180;2023-05-16T05:08:06;59.57;;;24.03;;
422;SDS011;198;48.752;9.180;2023-05-16T05:10:32;61.43;;;22.50;;
422;SDS011;198;48.752;9.180;2023-05-16T05:12:57;63.27;;;24.23;;
422;SDS011;198;48.752;9.180;2023-05-16T05:15:24;57.17;;;20.13;;
422;SDS011;198;48.752;9.180;2023-05-16T05:17:49;66.73;;;23.00;;
422;SDS011;198;48.752;9.180;2023-05-16T05:20:15;50.60;;;19.53;;
422;SDS011;198;48.752;9.180;2023-05-16T05:22:40;57.33;;;22.03;;
422;SDS011;198;48.752;9.180;2023-05-16T05:25:06;57.80;;;21.40;;
422;SDS011;198;48.752;9.180;2023-05-16T05:27:32;52.73;;;20.50;;
422;SDS011;198;48.752;9.180;2023-05-16T05:29:57;54.40;;;20.37;;
422;SDS011;198;48.752;9.180;2023-05-16T05:32:23;56.17;;;21.70;;
422;SDS011;198;48.752;9.180;2023-05-16T05:34:48;52.43;;;20.27;;
422;SDS011;198;48.752;9.180;2023-05-16T05:37:14;51.93;;;18.60;;
422;SDS011;198;48.752;9.180;2023-05-16T05:39:40;46.37;;;18.23;;
422;SDS011;198;48.752;9.180;2023-05-16T05:42:05;55.00;;;20.83;;
422;SDS011;198;48.752;9.180;2023-05-16T05:44:31;67.00;;;20.70;;
422;SDS011;198;48.752;9.180;2023-05-16T05:46:57;58.50;;;21.10;;
422;SDS011;198;48.752;9.180;2023-05-16T05:49:23;58.80;;;20.73;;
422;SDS011;198;48.752;9.180;2023-05-16T05:51:50;56.10;;;20.43;;
422;SDS011;198;48.752;9.180;2023-05-16T05:54:16;55.70;;;22.03;;
422;SDS011;198;48.752;9.180;2023-05-16T05:56:45;56.70;;;22.30;;
422;SDS011;198;48.752;9.180;2023-05-16T05:59:11;63.33;;;22.47;;
422;SDS011;198;48.752;9.180;2023-05-16T06:01:36;59.43;;;22.63;;
422;SDS011;198;48.752;9.180;2023-05-16T06:04:02;60.10;;;21.67;;
422;SDS011;198;48.752;9.180;2023-05-16T06:06:28;60.20;;;22.90;;
422;SDS011;198;48.752;9.180;2023-05-16T06:08:53;58.17;;;24.17;;
422;SDS011;198;48.752;9.180;2023-05-16T06:11:19;64.90;;;20.33;;
422;SDS011;198;48.752;9.180;2023-05-16T06:13:45;57.07;;;20.50;;
422;SDS011;198;48.752;9.180;2023-05-16T06:16:11;50.60;;;20.37;;
422;SDS011;198;48.752;9.180;2023-05-16T06:18:36;48.37;;;19.70;;
422;SDS011;198;48.752;9.180;2023-05-16T06:21:02;51.13;;;17.93;;
422;SDS011;198;48.752;9.180;2023-05-16T06:23:28;44.67;;;19.10;;
422;SDS011;198;48.752;9.180;2023-05-16T06:25:53;40.90;;;17.60;;
422;SDS011;198;48.752;9.180;2023-05-16T06:28:19;51.63;;;21.20;;
422;SDS011;198;48.752;9.180;2023-05-16T06:30:44;46.60;;;17.53;;
422;SDS011;198;48.752;9.180;2023-05-16T06:33:11;51.53;;;19.63;;
422;SDS011;198;48.752;9.180;2023-05-16T06:35:38;42.93;;;17.97;;
422;SDS011;198;48.752;9.180;2023-05-16T06:38:04;50.50;;;20.70;;
422;SDS011;198;48.752;9.180;2023-05-16T06:40:30;37.93;;;17.27;;
422;SDS011;198;48.752;9.180;2023-05-16T06:42:55;47.90;;;19.50;;
422;SDS011;198;48.752;9.180;2023-05-16T06:45:22;46.87;;;18.13;;
422;SDS011;198;48.752;9.180;2023-05-16T06:47:48;48.93;;;19.47;;
422;SDS011;198;48.752;9.180;2023-05-16T06:50:13;55.53;;;21.73;;
422;SDS011;198;48.752;9.180;2023-05-16T06:52:39;43.27;;;18.03;;
422;SDS011;198;48.752;9.180;2023-05-16T06:55:06;48.03;;;18.10;;
422;SDS011;198;48.752;9.180;2023-05-16T06:57:31;48.77;;;19.23;;
422;SDS011;198;48.752;9.180;2023-05-16T06:59:57;40.53;;;18.17;;
422;SDS011;198;48.752;9.180;2023-05-16T07:02:22;43.43;;;18.20;;
422;SDS011;198;48.752;9.180;2023-05-16T07:04:48;42.60;;;18.60;;
422;SDS011;198;48.752;9.180;2023-05-16T07:07:13;47.60;;;18.60;;
422;SDS011;198;48.752;9.180;2023-05-16T07:09:40;45.97;;;16.80;;
422;SDS011;198;48.752;9.180;2023-05-16T07:12:05;46.07;;;16.93;;
422;SDS011;198;48.752;9.180;2023-05-16T07:14:31;40.30;;;16.50;;
422;SDS011;198;48.752;9.180;2023-05-16T07:16:56;33.93;;;15.70;;
422;SDS011;198;48.752;9.180;2023-05-16T07:19:22;44.23;;;17.20;;
422;SDS011;198;48.752;9.180;2023-05-16T07:21:47;49.93;;;16.30;;
422;SDS011;198;48.752;9.180;2023-05-16T07:24:13;39.57;;;16.40;;
422;SDS011;198;48.752;9.180;2023-05-16T07:26:38;34.70;;;14.67;;
422;SDS011;198;48.752;9.180;2023-05-16T07:29:04;34.00;;;14.97;;
422;SDS011;198;48.752;9.180;2023-05-16T07:31:29;34.60;;;15.13;;
422;SDS011;198;48.752;9.180;2023-05-16T07:33:55;44.30;;;14.33;;
422;SDS011;198;48.752;9.180;2023-05-16T07:36:21;32.90;;;14.33;;
422;SDS011;198;48.752;9.180;2023-05-16T07:38:46;28.43;;;12.67;;
422;SDS011;198;48.752;9.180;2023-05-16T07:41:12;30.07;;;12.63;;
422;SDS011;198;48.752;9.180;2023-05-16T07:43:37;27.00;;;11.40;;
422;SDS011;198;48.752;9.180;2023-05-16T07:46:03;24.30;;;10.27;;
422;SDS011;198;48.752;9.180;2023-05-16T07:48:29;18.10;;;9.20;;
422;SDS011;198;48.752;9.180;2023-05-16T07:50:54;15.20;;;7.60;;
422;SDS011;198;48.752;9.180;2023-05-16T07:53:20;18.97;;;8.60;;
422;SDS011;198;48.752;9.180;2023-05-16T07:55:46;14.60;;;7.67;;
422;SDS011;198;48.752;9.180;2023-05-16T07:58:12;26.33;;;8.13;;
422;SDS011;198;48.752;9.180;2023-05-16T08:00:38;12.70;;;7.50;;
422;SDS011;198;48.752;9.180;2023-05-16T08:03:03;10.50;;;5.97;;
422;SDS011;198;48.752;9.180;2023-05-16T08:05:30;13.57;;;7.27;;
422;SDS011;198;48.752;9.180;2023-05-16T08:07:56;10.57;;;6.20;;
422;SDS011;198;48.752;9.180;2023-05-16T08:10:22;14.10;;;6.80;;
422;SDS011;198;48.752;9.180;2023-05-16T08:12:48;10.90;;;5.40;;
422;SDS011;198;48.752;9.180;2023-05-16T08:15:13;13.80;;;8.20;;
422;SDS011;198;48.752;9.180;2023-05-16T08:17:39;10.60;;;6.00;;
422;SDS011;198;48.752;9.180;2023-05-16T08:20:05;14.03;;;6.53;;
422;SDS011;198;48.752;9.180;2023-05-16T08:22:31;21.03;;;7.00;;
422;SDS011;198;48.752;9.180;2023-05-16T08:24:57;15.40;;;7.50;;
422;SDS011;198;48.752;9.180;2023-05-16T08:27:24;15.50;;;7.30;;
422;SDS011;198;48.752;9.180;2023-05-16T08:29:52;12.30;;;7.00;;
422;SDS011;198;48.752;9.180;2023-05-16T08:32:18;14.07;;;7.70;;
422;SDS011;198;48.752;9.180;2023-05-16T08:34:43;14.70;;;8.40;;
422;SDS011;198;48.752;9.180;2023-05-16T08:37:09;14.80;;;8.77;;
422;SDS011;198;48.752;9.180;2023-05-16T08:39:35;15.03;;;7.93;;
422;SDS011;198;48.752;9.180;2023-05-16T08:42:02;16.00;;;7.00;;
422;SDS011;198;48.752;9.180;2023-05-16T08:44:29;17.10;;;7.63;;
422;SDS011;198;48.752;9.180;2023-05-16T08:46:55;23.00;;;7.87;;
422;SDS011;198;48.752;9.180;2023-05-16T08:49:22;18.63;;;8.63;;
422;SDS011;198;48.752;9.180;2023-05-16T08:51:51;18.87;;;9.40;;
422;SDS011;198;48.752;9.180;2023-05-16T08:54:21;23.00;;;10.27;;
422;SDS011;198;48.752;9.180;2023-05-16T08:56:48;21.07;;;10.30;;
422;SDS011;198;48.752;9.180;2023-05-16T08:59:14;21.50;;;10.73;;
422;SDS011;198;48.752;9.180;2023-05-16T09:01:41;22.97;;;10.03;;
422;SDS011;198;48.752;9.180;2023-05-16T09:04:07;18.10;;;9.17;;
422;SDS011;198;48.752;9.180;2023-05-16T09:06:34;18.67;;;9.70;;
422;SDS011;198;48.752;9.180;2023-05-16T09:09:00;21.80;;;10.60;;
422;SDS011;198;48.752;9.180;2023-05-16T09:11:27;21.40;;;10.60;;
422;SDS011;198;48.752;9.180;2023-05-16T09:13:52;19.13;;;10.00;;
422;SDS011;198;48.752;9.180;2023-05-16T09:16:18;23.90;;;9.93;;
422;SDS011;198;48.752;9.180;2023-05-16T09:18:45;27.27;;;10.40;;
422;SDS011;198;48.752;9.180;2023-05-16T09:21:18;21.83;;;11.03;;
422;SDS011;198;48.752;9.180;2023-05-16T09:23:43;20.40;;;9.43;;
422;SDS011;198;48.752;9.180;2023-05-16T09:26:12;35.60;;;11.50;;
422;SDS011;198;48.752;9.180;2023-05-16T09:28:38;22.60;;;10.77;;
422;SDS011;198;48.752;9.180;2023-05-16T09:31:17;22.90;;;10.67;;
422;SDS011;198;48.752;9.180;2023-05-16T09:33:47;30.27;;;13.50;;
422;SDS011;198;48.752;9.180;2023-05-16T09:36:14;22.83;;;10.90;;
422;SDS011;198;48.752;9.180;2023-05-16T09:38:40;30.70;;;12.30;;
422;SDS011;198;48.752;9.180;2023-05-16T09:41:05;20.80;;;10.67;;
422;SDS011;198;48.752;9.180;2023-05-16T09:43:36;26.90;;;11.73;;
422;SDS011;198;48.752;9.180;2023-05-16T09:46:03;25.80;;;12.03;;
422;SDS011;198;48.752;9.180;2023-05-16T09:48:29;27.30;;;11.50;;
422;SDS011;198;48.752;9.180;2023-05-16T09:50:56;26.70;;;11.53;;
422;SDS011;198;48.752;9.180;2023-05-16T09:53:27;27.77;;;11.87;;
422;SDS011;198;48.752;9.180;2023-05-16T09:58:30;32.33;;;13.60;;
422;SDS011;198;48.752;9.180;2023-05-16T10:00:57;28.80;;;11.90;;
422;SDS011;198;48.752;9.180;2023-05-16T10:03:26;23.10;;;10.90;;
422;SDS011;198;48.752;9.180;2023-05-16T10:05:53;24.33;;;10.77;;
422;SDS011;198;48.752;9.180;2023-05-16T10:08:20;28.80;;;12.03;;
422;SDS011;198;48.752;9.180;2023-05-16T10:10:47;26.17;;;11.70;;
422;SDS011;198;48.752;9.180;2023-05-16T10:13:16;25.67;;;11.93;;
422;SDS011;198;48.752;9.180;2023-05-16T10:15:47;26.30;;;12.00;;
422;SDS011;198;48.752;9.180;2023-05-16T10:18:14;30.73;;;11.97;;
422;SDS011;198;48.752;9.180;2023-05-16T10:20:42;26.37;;;12.33;;
422;SDS011;198;48.752;9.180;2023-05-16T10:23:11;25.73;;;11.17;;
422;SDS011;198;48.752;9.180;2023-05-16T10:25:41;26.67;;;11.30;;
422;SDS011;198;48.752;9.180;2023-05-16T10:28:08;31.73;;;12.13;;
422;SDS011;198;48.752;9.180;2023-05-16T10:30:34;26.10;;;11.47;;
422;SDS011;198;48.752;9.180;2023-05-16T10:33:04;20.27;;;9.93;;
422;SDS011;198;48.752;9.180;2023-05-16T10:35:30;29.57;;;12.90;;
422;SDS011;198;48.752;9.180;2023-05-16T10:37:56;21.17;;;11.17;;
422;SDS011;198;48.752;9.180;2023-05-16T10:40:22;39.27;;;10.30;;
422;SDS011;198;48.752;9.180;2023-05-16T10:42:58;20.90;;;10.03;;
422;SDS011;198;48.752;9.180;2023-05-16T10:45:25;21.93;;;10.20;;
422;SDS011;198;48.752;9.180;2023-05-16T10:47:54;18.23;;;8.17;;
422;SDS011;198;48.752;9.180;2023-05-16T10:55:38;20.77;;;9.73;;
422;SDS011;198;48.752;9.180;2023-05-16T10:58:04;19.97;;;8.70;;
422;SDS011;198;48.752;9.180;2023-05-16T11:00:29;21.53;;;10.30;;
422;SDS011;198;48.752;9.180;2023-05-16T11:03:03;21.90;;;10.37;;
422;SDS011;198;48.752;9.180;2023-05-16T11:05:29;27.47;;;13.30;;
422;SDS011;198;48.752;9.180;2023-05-16T11:08:05;27.90;;;12.60;;
422;SDS011;198;48.752;9.180;2023-05-16T11:10:31;25.77;;;11.57;;
422;SDS011;198;48.752;9.180;2023-05-16T11:13:01;28.50;;;11.57;;
422;SDS011;198;48.752;9.180;2023-05-16T11:15:31;23.53;;;11.33;;
422;SDS011;198;48.752;9.180;2023-05-16T11:18:08;20.67;;;9.63;;
422;SDS011;198;48.752;9.180;2023-05-16T11:20:38;18.40;;;8.40;;
422;SDS011;198;48.752;9.180;2023-05-16T11:28:18;21.00;;;9.77;;
422;SDS011;198;48.752;9.180;2023-05-16T11:30:46;20.27;;;10.53;;
422;SDS011;198;48.752;9.180;2023-05-16T11:33:13;20.80;;;8.40;;
422;SDS011;198;48.752;9.180;2023-05-16T11:35:40;31.07;;;10.03;;
422;SDS011;198;48.752;9.180;2023-05-16T11:38:11;17.77;;;7.47;;
422;SDS011;198;48.752;9.180;2023-05-16T11:40:43;16.70;;;7.83;;
422;SDS011;198;48.752;9.180;2023-05-16T11:43:08;16.37;;;6.53;;
422;SDS011;198;48.752;9.180;2023-05-16T11:45:35;18.87;;;8.67;;
422;SDS011;198;48.752;9.180;2023-05-16T11:48:01;14.60;;;6.97;;
422;SDS011;198;48.752;9.180;2023-05-16T11:50:28;19.50;;;7.47;;
422;SDS011;198;48.752;9.180;2023-05-16T11:52:54;20.10;;;7.13;;
422;SDS011;198;48.752;9.180;2023-05-16T11:55:22;13.90;;;6.60;;
422;SDS011;198;48.752;9.180;2023-05-16T11:57:51;15.40;;;6.77;;
422;SDS011;198;48.752;9.180;2023-05-16T12:00:18;18.93;;;7.70;;
422;SDS011;198;48.752;9.180;2023-05-16T12:02:46;11.70;;;5.80;;
422;SDS011;198;48.752;9.180;2023-05-16T12:05:13;14.83;;;7.07;;
422;SDS011;198;48.752;9.180;2023-05-16T12:07:44;15.67;;;6.77;;
422;SDS011;198;48.752;9.180;2023-05-16T12:10:11;13.20;;;6.87;;
422;SDS011;198;48.752;9.180;2023-05-16T12:12:39;17.37;;;7.07;;
422;SDS011;198;48.752;9.180;2023-05-16T12:15:06;15.47;;;7.27;;
422;SDS011;198;48.752;9.180;2023-05-16T12:17:33;12.40;;;6.67;;
422;SDS011;198;48.752;9.180;2023-05-16T12:19:59;23.50;;;7.20;;
422;SDS011;198;48.752;9.180;2023-05-16T12:22:26;13.23;;;6.70;;
422;SDS011;198;48.752;9.180;2023-05-16T12:24:51;18.73;;;7.63;;
422;SDS011;198;48.752;9.180;2023-05-16T12:27:26;19.03;;;8.57;;
422;SDS011;198;48.752;9.180;2023-05-16T12:29:52;13.60;;;7.30;;
422;SDS011;198;48.752;9.180;2023-05-16T12:32:20;14.67;;;6.73;;
422;SDS011;198;48.752;9.180;2023-05-16T12:34:49;14.60;;;6.63;;
422;SDS011;198;48.752;9.180;2023-05-16T12:37:20;14.13;;;6.50;;
422;SDS011;198;48.752;9.180;2023-05-16T12:39:46;10.57;;;5.57;;
422;SDS011;198;48.752;9.180;2023-05-16T12:42:12;6.80;;;4.40;;
422;SDS011;198;48.752;9.180;2023-05-16T12:44:38;11.40;;;4.57;;
422;SDS011;198;48.752;9.180;2023-05-16T12:47:10;9.80;;;4.63;;
422;SDS011;198;48.752;9.180;2023-05-16T12:49:36;9.80;;;5.20;;
422;SDS011;198;48.752;9.180;2023-05-16T12:52:09;9.80;;;4.90;;
422;SDS011;198;48.752;9.180;2023-05-16T12:54:42;7.77;;;4.30;;
422;SDS011;198;48.752;9.180;2023-05-16T12:57:08;7.77;;;4.20;;
422;SDS011;198;48.752;9.180;2023-05-16T12:59:34;5.97;;;3.50;;
422;SDS011;198;48.752;9.180;2023-05-16T13:02:00;6.40;;;3.70;;
422;SDS011;198;48.752;9.180;2023-05-16T13:04:25;6.37;;;3.83;;
422;SDS011;198;48.752;9.180;2023-05-16T13:06:51;5.57;;;3.23;;
422;SDS011;198;48.752;9.180;2023-05-16T13:09:17;6.07;;;3.67;;
422;SDS011;198;48.752;9.180;2023-05-16T13:11:43;4.70;;;3.30;;
422;SDS011;198;48.752;9.180;2023-05-16T13:14:08;8.93;;;3.80;;
422;SDS011;198;48.752;9.180;2023-05-16T13:16:34;9.27;;;3.70;;
422;SDS011;198;48.752;9.180;2023-05-16T13:18:59;7.03;;;4.20;;
422;SDS011;198;48.752;9.180;2023-05-16T13:21:25;4.13;;;3.27;;
422;SDS011;198;48.752;9.180;2023-05-16T13:23:53;6.07;;;3.17;;
422;SDS011;198;48.752;9.180;2023-05-16T13:26:19;6.50;;;3.63;;
422;SDS011;198;48.752;9.180;2023-05-16T13:28:46;5.00;;;3.43;;
422;SDS011;198;48.752;9.180;2023-05-16T13:31:15;5.13;;;3.37;;
422;SDS011;198;48.752;9.180;2023-05-16T13:33:40;8.57;;;4.07;;
422;SDS011;198;48.752;9.180;2023-05-16T13:36:06;4.90;;;3.40;;
422;SDS011;198;48.752;9.180;2023-05-16T13:38:31;4.87;;;3.07;;
422;SDS011;198;48.752;9.180;2023-05-16T13:40:57;6.13;;;2.70;;
422;SDS011;198;48.752;9.180;2023-05-16T13:43:23;7.50;;;3.43;;
422;SDS011;198;48.752;9.180;2023-05-16T13:45:48;4.97;;;2.60;;
422;SDS011;198;48.752;9.180;2023-05-16T13:48:14;6.13;;;2.80;;
422;SDS011;198;48.752;9.180;2023-05-16T13:50:40;3.13;;;2.67;;
422;SDS011;198;48.752;9.180;2023-05-16T13:53:06;5.80;;;3.50;;
422;SDS011;198;48.752;9.180;2023-05-16T13:55:32;4.40;;;2.30;;
422;SDS011;198;48.752;9.180;2023-05-16T13:57:58;6.13;;;3.10;;
422;SDS011;198;48.752;9.180;2023-05-16T14:00:24;3.13;;;2.13;;
422;SDS011;198;48.752;9.180;2023-05-16T14:02:50;7.40;;;3.13;;
422;SDS011;198;48.752;9.180;2023-05-16T14:05:16;2.90;;;2.27;;
422;SDS011;198;48.752;9.180;2023-05-16T14:07:42;8.00;;;3.20;;
422;SDS011;198;48.752;9.180;2023-05-16T14:10:08;4.23;;;3.00;;
422;SDS011;198;48.752;9.180;2023-05-16T14:12:33;2.60;;;2.10;;
422;SDS011;198;48.752;9.180;2023-05-16T14:14:59;6.93;;;2.23;;
422;SDS011;198;48.752;9.180;2023-05-16T14:17:25;6.03;;;2.67;;
422;SDS011;198;48.752;9.180;2023-05-16T14:19:50;2.93;;;2.50;;
422;SDS011;198;48.752;9.180;2023-05-16T14:22:17;8.50;;;2.60;;
422;SDS011;198;48.752;9.180;2023-05-16T14:24:43;4.30;;;2.50;;
422;SDS011;198;48.752;9.180;2023-05-16T14:27:08;4.10;;;2.53;;
422;SDS011;198;48.752;9.180;2023-05-16T14:29:34;2.30;;;2.10;;
422;SDS011;198;48.752;9.180;2023-05-16T14:32:00;3.07;;;2.23;;
422;SDS011;198;48.752;9.180;2023-05-16T14:34:25;4.83;;;2.80;;
422;SDS011;198;48.752;9.180;2023-05-16T14:36:51;3.20;;;2.83;;
422;SDS011;198;48.752;9.180;2023-05-16T14:39:16;7.40;;;2.90;;
422;SDS011;198;48.752;9.180;2023-05-16T14:41:42;3.53;;;2.50;;
422;SDS011;198;48.752;9.180;2023-05-16T14:44:07;7.43;;;2.77;;
422;SDS011;198;48.752;9.180;2023-05-16T14:46:33;5.53;;;4.93;;
422;SDS011;198;48.752;9.180;2023-05-16T14:48:59;4.00;;;2.23;;
422;SDS011;198;48.752;9.180;2023-05-16T14:51:25;5.53;;;2.33;;
422;SDS011;198;48.752;9.180;2023-05-16T14:53:50;9.80;;;2.67;;
422;SDS011;198;48.752;9.180;2023-05-16T14:56:16;5.63;;;2.50;;
422;SDS011;198;48.752;9.180;2023-05-16T14:58:41;9.93;;;2.40;;
422;SDS011;198;48.752;9.180;2023-05-16T15:01:07;3.50;;;2.60;;
422;SDS011;198;48.752;9.180;2023-05-16T15:03:33;5.87;;;2.20;;
422;SDS011;198;48.752;9.180;2023-05-16T15:05:59;8.00;;;2.70;;
422;SDS011;198;48.752;9.180;2023-05-16T15:08:24;9.40;;;2.40;;
422;SDS011;198;48.752;9.180;2023-05-16T15:10:50;2.83;;;1.83;;
422;SDS011;198;48.752;9.180;2023-05-16T15:13:16;2.80;;;1.63;;
422;SDS011;198;48.752;9.180;2023-05-16T15:15:41;4.13;;;2.10;;
422;SDS011;198;48.752;9.180;2023-05-16T15:18:07;1.93;;;1.77;;
422;SDS011;198;48.752;9.180;2023-05-16T15:20:34;5.57;;;1.83;;
422;SDS011;198;48.752;9.180;2023-05-16T15:22:59;1.93;;;1.67;;
422;SDS011;198;48.752;9.180;2023-05-16T15:25:25;4.30;;;1.60;;
422;SDS011;198;48.752;9.180;2023-05-16T15:27:51;3.50;;;2.00;;
422;SDS011;198;48.752;9.180;2023-05-16T15:30:16;1.87;;;1.40;;
422;SDS011;198;48.752;9.180;2023-05-16T15:32:42;6.37;;;1.87;;
422;SDS011;198;48.752;9.180;2023-05-16T15:35:07;8.50;;;2.07;;
422;SDS011;198;48.752;9.180;2023-05-16T15:37:33;3.30;;;1.20;;
422;SDS011;198;48.752;9.180;2023-05-16T15:39:58;9.97;;;1.90;;
422;SDS011;198;48.752;9.180;2023-05-16T15:42:24;2.10;;;1.37;;
422;SDS011;198;48.752;9.180;2023-05-16T15:44:50;4.30;;;2.13;;